sensor_id;sensor_type;location;lat;lon;timestamp;pressure;altitude;pressure_sealevel;temperature;humidity
7906;BME280;13291;40.472;-3.878;2022-09-12T00:01:04;52829.94;;;-139.96;29.66
7906;BME280;13291;40.472;-3.878;2022-09-12T00:03:31;52819.94;;;-139.96;29.83
7906;BME280;13291;40.472;-3.878;2022-09-12T00:05:57;52819.94;;;-139.96;29.62
7906;BME280;13291;40.472;-3.878;2022-09-12T00:08:25;52797.94;;;-139.96;29.78
7906;BME280;13291;40.472;-3.878;2022-09-12T00:10:53;52821.94;;;-139.96;29.83
7906;BME280;13291;40.472;-3.878;2022-09-12T00:13:20;52841.97;;;-139.96;29.81
7906;BME280;13291;40.472;-3.878;2022-09-12T00:15:47;52855.97;;;-139.96;29.94
7906;BME280;13291;40.472;-3.878;2022-09-12T00:18:15;52833.97;;;-139.96;29.92
7906;BME280;13291;40.472;-3.878;2022-09-12T00:20:42;52825.94;;;-139.96;30.15
7906;BME280;13291;40.472;-3.878;2022-09-12T00:23:10;52829.94;;;-139.96;30.08
7906;BME280;13291;40.472;-3.878;2022-09-12T00:25:40;52839.97;;;-139.96;30.26
7906;BME280;13291;40.472;-3.878;2022-09-12T00:28:09;52829.94;;;-139.96;30.32
7906;BME280;13291;40.472;-3.878;2022-09-12T00:30:39;52809.94;;;-139.96;30.36
7906;BME280;13291;40.472;-3.878;2022-09-12T00:33:07;52821.94;;;-139.96;30.50
7906;BME280;13291;40.472;-3.878;2022-09-12T00:35:40;52803.94;;;-139.96;30.42
7906;BME280;13291;40.472;-3.878;2022-09-12T00:38:07;52827.94;;;-139.96;30.57
7906;BME280;13291;40.472;-3.878;2022-09-12T00:40:33;52791.94;;;-139.96;30.63
7906;BME280;13291;40.472;-3.878;2022-09-12T00:43:00;52833.97;;;-139.96;30.62
7906;BME280;13291;40.472;-3.878;2022-09-12T00:45:29;52801.94;;;-139.96;30.82
7906;BME280;13291;40.472;-3.878;2022-09-12T00:47:58;52813.94;;;-139.96;30.64
7906;BME280;13291;40.472;-3.878;2022-09-12T00:50:27;52805.94;;;-139.96;30.77
7906;BME280;13291;40.472;-3.878;2022-09-12T00:52:57;52817.94;;;-139.96;30.77
7906;BME280;13291;40.472;-3.878;2022-09-12T00:55:28;52817.94;;;-139.96;30.93
7906;BME280;13291;40.472;-3.878;2022-09-12T00:58:02;52817.94;;;-139.96;30.70
7906;BME280;13291;40.472;-3.878;2022-09-12T01:00:32;52825.94;;;-139.96;30.72
7906;BME280;13291;40.472;-3.878;2022-09-12T01:03:02;52833.97;;;-139.96;31.17
7906;BME280;13291;40.472;-3.878;2022-09-12T01:05:30;52809.94;;;-139.96;30.98
7906;BME280;13291;40.472;-3.878;2022-09-12T01:08:00;52837.97;;;-139.96;31.09
7906;BME280;13291;40.472;-3.878;2022-09-12T01:10:28;52837.97;;;-139.96;31.25
7906;BME280;13291;40.472;-3.878;2022-09-12T01:12:56;52815.94;;;-139.96;31.23
7906;BME280;13291;40.472;-3.878;2022-09-12T01:15:23;52833.97;;;-139.96;31.50
7906;BME280;13291;40.472;-3.878;2022-09-12T01:18:04;52797.94;;;-139.96;31.57
7906;BME280;13291;40.472;-3.878;2022-09-12T01:20:43;52833.97;;;-139.96;31.29
7906;BME280;13291;40.472;-3.878;2022-09-12T01:23:37;52817.94;;;-139.96;31.87
7906;BME280;13291;40.472;-3.878;2022-09-12T01:26:49;52861.97;;;-139.96;31.42
7906;BME280;13291;40.472;-3.878;2022-09-12T01:29:39;52847.97;;;-139.96;31.58
7906;BME280;13291;40.472;-3.878;2022-09-12T01:32:14;52843.97;;;-139.96;31.52
7906;BME280;13291;40.472;-3.878;2022-09-12T01:34:49;52847.97;;;-139.96;31.50
7906;BME280;13291;40.472;-3.878;2022-09-12T01:37:26;52825.94;;;-139.96;31.51
7906;BME280;13291;40.472;-3.878;2022-09-12T01:40:01;52831.97;;;-139.96;31.40
7906;BME280;13291;40.472;-3.878;2022-09-12T01:42:33;52825.94;;;-139.96;31.36
7906;BME280;13291;40.472;-3.878;2022-09-12T01:45:08;52813.94;;;-139.96;31.23
7906;BME280;13291;40.472;-3.878;2022-09-12T01:47:43;52871.97;;;-139.96;31.31
7906;BME280;13291;40.472;-3.878;2022-09-12T01:50:15;52835.97;;;-139.96;31.23
7906;BME280;13291;40.472;-3.878;2022-09-12T01:52:47;52815.94;;;-139.96;31.47
7906;BME280;13291;40.472;-3.878;2022-09-12T01:55:18;52829.94;;;-139.96;31.33
7906;BME280;13291;40.472;-3.878;2022-09-12T01:57:51;52833.97;;;-139.96;31.20
7906;BME280;13291;40.472;-3.878;2022-09-12T02:00:20;52821.94;;;-139.96;31.45
7906;BME280;13291;40.472;-3.878;2022-09-12T02:02:52;52825.94;;;-139.96;31.27
7906;BME280;13291;40.472;-3.878;2022-09-12T02:05:27;52813.94;;;-139.96;31.33
7906;BME280;13291;40.472;-3.878;2022-09-12T02:08:00;52849.97;;;-139.96;31.13
7906;BME280;13291;40.472;-3.878;2022-09-12T02:10:30;52839.97;;;-139.96;31.00
7906;BME280;13291;40.472;-3.878;2022-09-12T02:13:03;52809.94;;;-139.96;31.26
7906;BME280;13291;40.472;-3.878;2022-09-12T02:15:37;52849.97;;;-139.96;31.68
7906;BME280;13291;40.472;-3.878;2022-09-12T02:18:07;52843.97;;;-139.96;31.80
7906;BME280;13291;40.472;-3.878;2022-09-12T02:20:37;52811.94;;;-139.96;33.57
7906;BME280;13291;40.472;-3.878;2022-09-12T02:23:10;52847.97;;;-139.96;33.89
7906;BME280;13291;40.472;-3.878;2022-09-12T02:25:41;52855.97;;;-139.96;34.09
7906;BME280;13291;40.472;-3.878;2022-09-12T02:28:13;52843.97;;;-139.96;33.83
7906;BME280;13291;40.472;-3.878;2022-09-12T02:30:47;52839.97;;;-139.96;34.02
7906;BME280;13291;40.472;-3.878;2022-09-12T02:33:23;52881.97;;;-139.96;34.59
7906;BME280;13291;40.472;-3.878;2022-09-12T02:35:57;52855.97;;;-139.96;34.34
7906;BME280;13291;40.472;-3.878;2022-09-12T02:38:34;52835.97;;;-139.96;34.24
7906;BME280;13291;40.472;-3.878;2022-09-12T02:41:03;52855.97;;;-139.96;34.05
7906;BME280;13291;40.472;-3.878;2022-09-12T02:43:30;52835.97;;;-139.96;33.83
7906;BME280;13291;40.472;-3.878;2022-09-12T02:45:57;52829.94;;;-139.96;33.49
7906;BME280;13291;40.472;-3.878;2022-09-12T02:48:27;52859.97;;;-139.96;33.31
7906;BME280;13291;40.472;-3.878;2022-09-12T02:50:55;52825.94;;;-139.96;33.14
7906;BME280;13291;40.472;-3.878;2022-09-12T02:53:25;52845.97;;;-139.96;33.44
7906;BME280;13291;40.472;-3.878;2022-09-12T02:55:52;52837.97;;;-139.96;33.33
7906;BME280;13291;40.472;-3.878;2022-09-12T02:58:21;52825.94;;;-139.96;33.54
7906;BME280;13291;40.472;-3.878;2022-09-12T03:00:53;52825.94;;;-139.96;33.44
7906;BME280;13291;40.472;-3.878;2022-09-12T03:03:37;52849.97;;;-139.96;33.39
7906;BME280;13291;40.472;-3.878;2022-09-12T03:06:16;52875.97;;;-139.96;33.06
7906;BME280;13291;40.472;-3.878;2022-09-12T03:08:55;52843.97;;;-139.96;33.18
7906;BME280;13291;40.472;-3.878;2022-09-12T03:11:45;52817.94;;;-139.96;33.29
7906;BME280;13291;40.472;-3.878;2022-09-12T03:14:25;52839.97;;;-139.96;33.40
7906;BME280;13291;40.472;-3.878;2022-09-12T03:17:06;52873.97;;;-139.96;33.34
7906;BME280;13291;40.472;-3.878;2022-09-12T03:19:42;52835.97;;;-139.96;33.59
7906;BME280;13291;40.472;-3.878;2022-09-12T03:22:17;52861.97;;;-139.96;33.63
7906;BME280;13291;40.472;-3.878;2022-09-12T03:24:51;52859.97;;;-139.96;33.59
7906;BME280;13291;40.472;-3.878;2022-09-12T03:27:25;52877.97;;;-139.96;33.76
7906;BME280;13291;40.472;-3.878;2022-09-12T03:29:54;52855.97;;;-139.96;33.57
7906;BME280;13291;40.472;-3.878;2022-09-12T03:32:40;52857.97;;;-139.96;33.53
7906;BME280;13291;40.472;-3.878;2022-09-12T03:35:09;52893.97;;;-139.96;33.57
7906;BME280;13291;40.472;-3.878;2022-09-12T03:37:36;52877.97;;;-139.96;33.56
7906;BME280;13291;40.472;-3.878;2022-09-12T03:40:06;52851.97;;;-139.96;33.71
7906;BME280;13291;40.472;-3.878;2022-09-12T03:42:33;52853.97;;;-139.96;34.15
7906;BME280;13291;40.472;-3.878;2022-09-12T03:45:00;52829.94;;;-139.96;34.10
7906;BME280;13291;40.472;-3.878;2022-09-12T03:47:26;52845.97;;;-139.96;34.47
7906;BME280;13291;40.472;-3.878;2022-09-12T03:49:53;52825.94;;;-139.96;35.75
7906;BME280;13291;40.472;-3.878;2022-09-12T03:52:22;52873.97;;;-139.96;38.19
7906;BME280;13291;40.472;-3.878;2022-09-12T03:54:48;52885.97;;;-139.96;38.49
7906;BME280;13291;40.472;-3.878;2022-09-12T03:57:15;52865.97;;;-139.96;40.33
7906;BME280;13291;40.472;-3.878;2022-09-12T03:59:42;52905.97;;;-139.96;39.90
7906;BME280;13291;40.472;-3.878;2022-09-12T04:02:09;52885.97;;;-139.96;39.96
7906;BME280;13291;40.472;-3.878;2022-09-12T04:04:39;52871.97;;;-139.96;40.08
7906;BME280;13291;40.472;-3.878;2022-09-12T04:07:07;52871.97;;;-139.96;39.82
7906;BME280;13291;40.472;-3.878;2022-09-12T04:09:35;52897.97;;;-139.96;39.54
7906;BME280;13291;40.472;-3.878;2022-09-12T04:12:02;52897.97;;;-139.96;39.21
7906;BME280;13291;40.472;-3.878;2022-09-12T04:14:29;52911.97;;;-139.96;39.00
7906;BME280;13291;40.472;-3.878;2022-09-12T04:16:56;52885.97;;;-139.96;39.24
7906;BME280;13291;40.472;-3.878;2022-09-12T04:19:24;52905.97;;;-139.96;39.13
7906;BME280;13291;40.472;-3.878;2022-09-12T04:21:51;52877.97;;;-139.96;39.15
7906;BME280;13291;40.472;-3.878;2022-09-12T04:24:18;52897.97;;;-139.96;39.05
7906;BME280;13291;40.472;-3.878;2022-09-12T04:26:46;52881.97;;;-139.96;39.12
7906;BME280;13291;40.472;-3.878;2022-09-12T04:29:13;52929.97;;;-139.96;39.12
7906;BME280;13291;40.472;-3.878;2022-09-12T04:31:40;52913.97;;;-139.96;38.88
7906;BME280;13291;40.472;-3.878;2022-09-12T04:34:08;52865.97;;;-139.96;38.83
7906;BME280;13291;40.472;-3.878;2022-09-12T04:36:35;52897.97;;;-139.96;38.69
7906;BME280;13291;40.472;-3.878;2022-09-12T04:39:03;52893.97;;;-139.96;38.39
7906;BME280;13291;40.472;-3.878;2022-09-12T04:41:32;52891.97;;;-139.96;38.55
7906;BME280;13291;40.472;-3.878;2022-09-12T04:44:04;52897.97;;;-139.96;38.57
7906;BME280;13291;40.472;-3.878;2022-09-12T04:46:33;52877.97;;;-139.96;38.74
7906;BME280;13291;40.472;-3.878;2022-09-12T04:49:00;52867.97;;;-139.96;38.42
7906;BME280;13291;40.472;-3.878;2022-09-12T04:51:29;52895.97;;;-139.96;38.38
7906;BME280;13291;40.472;-3.878;2022-09-12T04:53:57;52879.97;;;-139.96;38.37
7906;BME280;13291;40.472;-3.878;2022-09-12T04:56:25;52897.97;;;-139.96;38.47
7906;BME280;13291;40.472;-3.878;2022-09-12T04:58:52;52911.97;;;-139.96;38.68
7906;BME280;13291;40.472;-3.878;2022-09-12T05:01:21;52935.97;;;-139.96;38.57
7906;BME280;13291;40.472;-3.878;2022-09-12T05:03:49;52903.97;;;-139.96;38.61
7906;BME280;13291;40.472;-3.878;2022-09-12T05:06:17;52881.97;;;-139.96;38.59
7906;BME280;13291;40.472;-3.878;2022-09-12T05:08:45;52869.97;;;-139.96;38.62
7906;BME280;13291;40.472;-3.878;2022-09-12T05:11:14;52911.97;;;-139.96;38.67
7906;BME280;13291;40.472;-3.878;2022-09-12T05:13:41;52903.97;;;-139.96;38.69
7906;BME280;13291;40.472;-3.878;2022-09-12T05:16:10;52901.97;;;-139.96;38.69
7906;BME280;13291;40.472;-3.878;2022-09-12T05:18:39;52887.97;;;-139.96;38.86
7906;BME280;13291;40.472;-3.878;2022-09-12T05:21:07;52929.97;;;-139.96;38.54
7906;BME280;13291;40.472;-3.878;2022-09-12T05:23:35;52907.97;;;-139.96;38.96
7906;BME280;13291;40.472;-3.878;2022-09-12T05:26:03;52903.97;;;-139.96;39.33
7906;BME280;13291;40.472;-3.878;2022-09-12T05:28:32;52891.97;;;-139.96;39.09
7906;BME280;13291;40.472;-3.878;2022-09-12T05:31:00;52899.97;;;-139.96;38.72
7906;BME280;13291;40.472;-3.878;2022-09-12T05:33:28;52893.97;;;-139.96;38.89
7906;BME280;13291;40.472;-3.878;2022-09-12T05:35:56;52891.97;;;-139.96;39.02
7906;BME280;13291;40.472;-3.878;2022-09-12T05:38:23;52919.97;;;-139.96;38.99
7906;BME280;13291;40.472;-3.878;2022-09-12T05:40:50;52909.97;;;-139.96;39.01
7906;BME280;13291;40.472;-3.878;2022-09-12T05:43:17;52905.97;;;-139.96;38.76
7906;BME280;13291;40.472;-3.878;2022-09-12T05:45:44;52937.97;;;-139.96;38.60
7906;BME280;13291;40.472;-3.878;2022-09-12T05:48:11;52941.97;;;-139.96;38.33
7906;BME280;13291;40.472;-3.878;2022-09-12T05:50:39;52893.97;;;-139.96;38.60
7906;BME280;13291;40.472;-3.878;2022-09-12T05:53:08;52915.97;;;-139.96;38.73
7906;BME280;13291;40.472;-3.878;2022-09-12T05:55:35;52905.97;;;-139.96;38.95
7906;BME280;13291;40.472;-3.878;2022-09-12T05:58:02;52923.97;;;-139.96;38.92
7906;BME280;13291;40.472;-3.878;2022-09-12T06:00:29;52899.97;;;-139.96;39.02
7906;BME280;13291;40.472;-3.878;2022-09-12T06:02:56;52911.97;;;-139.96;39.02
7906;BME280;13291;40.472;-3.878;2022-09-12T06:05:22;52891.97;;;-139.96;38.64
7906;BME280;13291;40.472;-3.878;2022-09-12T06:07:49;52881.97;;;-139.96;38.95
7906;BME280;13291;40.472;-3.878;2022-09-12T06:10:17;52877.97;;;-139.96;39.27
7906;BME280;13291;40.472;-3.878;2022-09-12T06:12:46;52889.97;;;-139.96;39.10
7906;BME280;13291;40.472;-3.878;2022-09-12T06:15:13;52901.97;;;-139.96;39.20
7906;BME280;13291;40.472;-3.878;2022-09-12T06:17:40;52893.97;;;-139.96;39.13
7906;BME280;13291;40.472;-3.878;2022-09-12T06:20:08;52885.97;;;-139.96;39.17
7906;BME280;13291;40.472;-3.878;2022-09-12T06:22:35;52895.97;;;-139.96;39.04
7906;BME280;13291;40.472;-3.878;2022-09-12T06:25:01;52923.97;;;-139.96;39.17
7906;BME280;13291;40.472;-3.878;2022-09-12T06:27:30;52921.97;;;-139.96;38.93
7906;BME280;13291;40.472;-3.878;2022-09-12T06:29:57;52881.97;;;-139.96;38.93
7906;BME280;13291;40.472;-3.878;2022-09-12T06:32:24;52921.97;;;-139.96;38.91
7906;BME280;13291;40.472;-3.878;2022-09-12T06:34:51;52917.97;;;-139.96;39.09
7906;BME280;13291;40.472;-3.878;2022-09-12T06:37:18;52931.97;;;-139.96;38.83
7906;BME280;13291;40.472;-3.878;2022-09-12T06:39:45;52889.97;;;-139.96;38.59
7906;BME280;13291;40.472;-3.878;2022-09-12T06:42:13;52899.97;;;-139.96;38.37
7906;BME280;13291;40.472;-3.878;2022-09-12T06:44:42;52897.97;;;-139.96;38.57
7906;BME280;13291;40.472;-3.878;2022-09-12T06:47:09;52893.97;;;-139.96;38.50
7906;BME280;13291;40.472;-3.878;2022-09-12T06:49:36;52883.97;;;-139.96;37.90
7906;BME280;13291;40.472;-3.878;2022-09-12T06:52:05;52869.97;;;-139.96;37.79
7906;BME280;13291;40.472;-3.878;2022-09-12T06:54:33;52869.97;;;-139.96;37.54
7906;BME280;13291;40.472;-3.878;2022-09-12T06:57:00;52907.97;;;-139.96;37.59
7906;BME280;13291;40.472;-3.878;2022-09-12T06:59:27;52903.97;;;-139.96;37.46
7906;BME280;13291;40.472;-3.878;2022-09-12T07:01:55;52849.97;;;-139.96;37.55
7906;BME280;13291;40.472;-3.878;2022-09-12T07:04:22;52901.97;;;-139.96;37.39
7906;BME280;13291;40.472;-3.878;2022-09-12T07:06:49;52877.97;;;-139.96;37.32
7906;BME280;13291;40.472;-3.878;2022-09-12T07:09:16;52907.97;;;-139.96;37.34
7906;BME280;13291;40.472;-3.878;2022-09-12T07:11:44;52877.97;;;-139.96;37.23
7906;BME280;13291;40.472;-3.878;2022-09-12T07:14:12;52881.97;;;-139.96;37.10
7906;BME280;13291;40.472;-3.878;2022-09-12T07:16:40;52855.97;;;-139.96;37.33
7906;BME280;13291;40.472;-3.878;2022-09-12T07:19:08;52845.97;;;-139.96;37.10
7906;BME280;13291;40.472;-3.878;2022-09-12T07:21:35;52887.97;;;-139.96;37.23
7906;BME280;13291;40.472;-3.878;2022-09-12T07:24:04;52865.97;;;-139.96;37.08
7906;BME280;13291;40.472;-3.878;2022-09-12T07:26:33;52857.97;;;-139.96;37.18
7906;BME280;13291;40.472;-3.878;2022-09-12T07:29:00;52893.97;;;-139.96;37.30
7906;BME280;13291;40.472;-3.878;2022-09-12T07:31:27;52879.97;;;-139.96;37.20
7906;BME280;13291;40.472;-3.878;2022-09-12T07:33:54;52871.97;;;-139.96;37.23
7906;BME280;13291;40.472;-3.878;2022-09-12T07:36:23;52877.97;;;-139.96;37.42
7906;BME280;13291;40.472;-3.878;2022-09-12T07:38:54;52901.97;;;-139.96;37.52
7906;BME280;13291;40.472;-3.878;2022-09-12T07:41:23;52877.97;;;-139.96;37.43
7906;BME280;13291;40.472;-3.878;2022-09-12T07:43:51;52907.97;;;-139.96;37.65
7906;BME280;13291;40.472;-3.878;2022-09-12T07:46:18;52843.97;;;-139.96;37.33
7906;BME280;13291;40.472;-3.878;2022-09-12T07:48:48;52897.97;;;-139.96;37.43
7906;BME280;13291;40.472;-3.878;2022-09-12T07:51:16;52861.97;;;-139.96;37.59
7906;BME280;13291;40.472;-3.878;2022-09-12T07:53:45;52883.97;;;-139.96;37.41
7906;BME280;13291;40.472;-3.878;2022-09-12T07:56:14;52885.97;;;-139.96;37.30
7906;BME280;13291;40.472;-3.878;2022-09-12T07:58:41;52879.97;;;-139.96;37.63
7906;BME280;13291;40.472;-3.878;2022-09-12T08:01:10;52857.97;;;-139.96;37.54
7906;BME280;13291;40.472;-3.878;2022-09-12T08:03:38;52869.97;;;-139.96;37.37
7906;BME280;13291;40.472;-3.878;2022-09-12T08:06:06;52853.97;;;-139.96;37.88
7906;BME280;13291;40.472;-3.878;2022-09-12T08:08:34;52865.97;;;-139.96;37.92
7906;BME280;13291;40.472;-3.878;2022-09-12T08:11:05;52885.97;;;-139.96;37.73
7906;BME280;13291;40.472;-3.878;2022-09-12T08:13:33;52899.97;;;-139.96;37.73
7906;BME280;13291;40.472;-3.878;2022-09-12T08:16:02;52849.97;;;-139.96;37.78
7906;BME280;13291;40.472;-3.878;2022-09-12T08:18:31;52895.97;;;-139.96;37.30
7906;BME280;13291;40.472;-3.878;2022-09-12T08:20:58;52889.97;;;-139.96;37.45
7906;BME280;13291;40.472;-3.878;2022-09-12T08:23:26;52833.97;;;-139.96;37.25
7906;BME280;13291;40.472;-3.878;2022-09-12T08:25:54;52865.97;;;-139.96;37.52
7906;BME280;13291;40.472;-3.878;2022-09-12T08:28:23;52849.97;;;-139.96;37.06
7906;BME280;13291;40.472;-3.878;2022-09-12T08:30:50;52851.97;;;-139.96;36.97
7906;BME280;13291;40.472;-3.878;2022-09-12T08:33:17;52865.97;;;-139.96;36.87
7906;BME280;13291;40.472;-3.878;2022-09-12T08:35:44;52867.97;;;-139.96;36.96
7906;BME280;13291;40.472;-3.878;2022-09-12T08:38:11;52859.97;;;-139.96;36.83
7906;BME280;13291;40.472;-3.878;2022-09-12T08:40:52;52903.97;;;-139.96;36.94
7906;BME280;13291;40.472;-3.878;2022-09-12T08:43:37;52889.97;;;-139.96;37.11
7906;BME280;13291;40.472;-3.878;2022-09-12T08:46:14;52833.97;;;-139.96;36.90
7906;BME280;13291;40.472;-3.878;2022-09-12T08:48:44;52841.97;;;-139.96;36.80
7906;BME280;13291;40.472;-3.878;2022-09-12T08:51:14;52843.97;;;-139.96;36.60
7906;BME280;13291;40.472;-3.878;2022-09-12T08:53:44;52873.97;;;-139.96;37.00
7906;BME280;13291;40.472;-3.878;2022-09-12T08:56:12;52873.97;;;-139.96;36.51
7906;BME280;13291;40.472;-3.878;2022-09-12T08:58:42;52887.97;;;-139.96;37.15
7906;BME280;13291;40.472;-3.878;2022-09-12T09:01:15;52861.97;;;-139.96;36.84
7906;BME280;13291;40.472;-3.878;2022-09-12T09:03:58;52875.97;;;-139.96;37.20
7906;BME280;13291;40.472;-3.878;2022-09-12T09:06:49;52869.97;;;-139.96;37.25
7906;BME280;13291;40.472;-3.878;2022-09-12T09:09:26;52843.97;;;-139.96;37.37
7906;BME280;13291;40.472;-3.878;2022-09-12T09:12:03;52869.97;;;-139.96;37.59
7906;BME280;13291;40.472;-3.878;2022-09-12T09:14:55;52851.97;;;-139.96;37.02
7906;BME280;13291;40.472;-3.878;2022-09-12T09:17:30;52853.97;;;-139.96;36.73
7906;BME280;13291;40.472;-3.878;2022-09-12T09:20:02;52865.97;;;-139.96;36.49
7906;BME280;13291;40.472;-3.878;2022-09-12T09:22:39;52845.97;;;-139.96;36.41
7906;BME280;13291;40.472;-3.878;2022-09-12T09:25:14;52879.97;;;-139.96;36.36
7906;BME280;13291;40.472;-3.878;2022-09-12T09:27:45;52823.94;;;-139.96;36.32
7906;BME280;13291;40.472;-3.878;2022-09-12T09:30:17;52877.97;;;-139.96;36.32
7906;BME280;13291;40.472;-3.878;2022-09-12T09:32:49;52853.97;;;-139.96;36.51
7906;BME280;13291;40.472;-3.878;2022-09-12T09:35:23;52837.97;;;-139.96;36.64
7906;BME280;13291;40.472;-3.878;2022-09-12T09:38:00;52867.97;;;-139.96;36.46
7906;BME280;13291;40.472;-3.878;2022-09-12T09:40:36;52859.97;;;-139.96;36.85
7906;BME280;13291;40.472;-3.878;2022-09-12T09:43:16;52871.97;;;-139.96;36.59
7906;BME280;13291;40.472;-3.878;2022-09-12T09:45:48;52861.97;;;-139.96;36.13
7906;BME280;13291;40.472;-3.878;2022-09-12T09:48:18;52829.94;;;-139.96;36.63
7906;BME280;13291;40.472;-3.878;2022-09-12T09:50:47;52833.97;;;-139.96;36.65
7906;BME280;13291;40.472;-3.878;2022-09-12T09:53:25;52899.97;;;-139.96;36.46
7906;BME280;13291;40.472;-3.878;2022-09-12T09:55:55;52857.97;;;-139.96;36.86
7906;BME280;13291;40.472;-3.878;2022-09-12T09:58:28;52823.94;;;-139.96;36.82
7906;BME280;13291;40.472;-3.878;2022-09-12T10:01:00;52885.97;;;-139.96;37.57
7906;BME280;13291;40.472;-3.878;2022-09-12T10:03:31;52875.97;;;-139.96;37.31
7906;BME280;13291;40.472;-3.878;2022-09-12T10:06:01;52857.97;;;-139.96;37.44
7906;BME280;13291;40.472;-3.878;2022-09-12T10:08:32;52861.97;;;-139.96;37.43
7906;BME280;13291;40.472;-3.878;2022-09-12T10:11:03;52867.97;;;-139.96;37.08
7906;BME280;13291;40.472;-3.878;2022-09-12T10:13:36;52855.97;;;-139.96;37.12
7906;BME280;13291;40.472;-3.878;2022-09-12T10:16:16;52857.97;;;-139.96;37.68
7906;BME280;13291;40.472;-3.878;2022-09-12T10:18:44;52841.97;;;-139.96;37.71
7906;BME280;13291;40.472;-3.878;2022-09-12T10:21:13;52893.97;;;-139.96;37.73
7906;BME280;13291;40.472;-3.878;2022-09-12T10:23:41;52865.97;;;-139.96;37.75
7906;BME280;13291;40.472;-3.878;2022-09-12T10:26:10;52837.97;;;-139.96;37.69
7906;BME280;13291;40.472;-3.878;2022-09-12T10:28:40;52873.97;;;-139.96;38.10
7906;BME280;13291;40.472;-3.878;2022-09-12T10:31:13;52845.97;;;-139.96;38.36
7906;BME280;13291;40.472;-3.878;2022-09-12T10:33:44;52891.97;;;-139.96;39.53
7906;BME280;13291;40.472;-3.878;2022-09-12T10:36:17;52891.97;;;-139.96;39.21
7906;BME280;13291;40.472;-3.878;2022-09-12T10:38:48;52837.97;;;-139.96;39.40
7906;BME280;13291;40.472;-3.878;2022-09-12T10:41:17;52927.97;;;-139.96;39.12
7906;BME280;13291;40.472;-3.878;2022-09-12T10:43:44;52859.97;;;-139.96;38.84
7906;BME280;13291;40.472;-3.878;2022-09-12T10:46:27;52849.97;;;-139.96;38.66
7906;BME280;13291;40.472;-3.878;2022-09-12T10:49:18;52853.97;;;-139.96;39.35
7906;BME280;13291;40.472;-3.878;2022-09-12T10:51:47;52871.97;;;-139.96;38.47
7906;BME280;13291;40.472;-3.878;2022-09-12T10:54:16;52841.97;;;-139.96;38.40
7906;BME280;13291;40.472;-3.878;2022-09-12T10:56:55;52897.97;;;-139.96;38.88
7906;BME280;13291;40.472;-3.878;2022-09-12T10:59:37;52881.97;;;-139.96;38.56
7906;BME280;13291;40.472;-3.878;2022-09-12T11:02:14;52875.97;;;-139.96;38.16
7906;BME280;13291;40.472;-3.878;2022-09-12T11:04:55;52869.97;;;-139.96;38.17
7906;BME280;13291;40.472;-3.878;2022-09-12T11:07:36;52831.97;;;-139.96;37.89
7906;BME280;13291;40.472;-3.878;2022-09-12T11:13:03;52873.97;;;-139.96;37.95
7906;BME280;13291;40.472;-3.878;2022-09-12T11:15:48;52871.97;;;-139.96;37.73
7906;BME280;13291;40.472;-3.878;2022-09-12T11:18:31;52885.97;;;-139.96;37.94
7906;BME280;13291;40.472;-3.878;2022-09-12T11:21:18;52889.97;;;-139.96;38.42
7906;BME280;13291;40.472;-3.878;2022-09-12T11:24:23;52887.97;;;-139.96;38.09
7906;BME280;13291;40.472;-3.878;2022-09-12T11:27:08;52885.97;;;-139.96;38.29
7906;BME280;13291;40.472;-3.878;2022-09-12T11:29:46;52873.97;;;-139.96;38.76
7906;BME280;13291;40.472;-3.878;2022-09-12T11:35:47;52889.97;;;-139.96;39.91
7906;BME280;13291;40.472;-3.878;2022-09-12T11:38:33;52899.97;;;-139.96;40.49
7906;BME280;13291;40.472;-3.878;2022-09-12T11:41:06;52877.97;;;-139.96;39.83
7906;BME280;13291;40.472;-3.878;2022-09-12T11:43:39;52857.97;;;-139.96;40.09
7906;BME280;13291;40.472;-3.878;2022-09-12T11:46:16;52881.97;;;-139.96;40.00
7906;BME280;13291;40.472;-3.878;2022-09-12T11:48:50;52879.97;;;-139.96;39.74
7906;BME280;13291;40.472;-3.878;2022-09-12T11:51:24;52887.97;;;-139.96;40.22
7906;BME280;13291;40.472;-3.878;2022-09-12T11:54:00;52871.97;;;-139.96;40.33
7906;BME280;13291;40.472;-3.878;2022-09-12T11:56:28;52855.97;;;-139.96;41.06
7906;BME280;13291;40.472;-3.878;2022-09-12T11:59:02;52885.97;;;-139.96;41.14
7906;BME280;13291;40.472;-3.878;2022-09-12T12:01:34;52887.97;;;-139.96;40.88
7906;BME280;13291;40.472;-3.878;2022-09-12T12:04:10;52881.97;;;-139.96;40.96
7906;BME280;13291;40.472;-3.878;2022-09-12T12:06:46;52861.97;;;-139.96;41.23
7906;BME280;13291;40.472;-3.878;2022-09-12T12:09:15;52889.97;;;-139.96;40.77
7906;BME280;13291;40.472;-3.878;2022-09-12T12:11:46;52897.97;;;-139.96;40.76
7906;BME280;13291;40.472;-3.878;2022-09-12T12:14:17;52889.97;;;-139.96;40.86
7906;BME280;13291;40.472;-3.878;2022-09-12T12:16:45;52853.97;;;-139.96;40.10
7906;BME280;13291;40.472;-3.878;2022-09-12T12:19:32;52849.97;;;-139.96;39.89
7906;BME280;13291;40.472;-3.878;2022-09-12T12:22:13;52881.97;;;-139.96;39.81
7906;BME280;13291;40.472;-3.878;2022-09-12T12:25:07;52877.97;;;-139.96;39.02
7906;BME280;13291;40.472;-3.878;2022-09-12T12:27:50;52865.97;;;-139.96;39.41
7906;BME280;13291;40.472;-3.878;2022-09-12T12:33:53;52875.97;;;-139.96;39.48
7906;BME280;13291;40.472;-3.878;2022-09-12T12:36:35;52881.97;;;-139.96;38.72
7906;BME280;13291;40.472;-3.878;2022-09-12T12:46:02;52887.97;;;-139.96;38.18
7906;BME280;13291;40.472;-3.878;2022-09-12T12:48:42;52877.97;;;-139.96;37.79
7906;BME280;13291;40.472;-3.878;2022-09-12T12:51:16;52869.97;;;-139.96;36.15
7906;BME280;13291;40.472;-3.878;2022-09-12T12:53:49;52893.97;;;-139.96;36.11
7906;BME280;13291;40.472;-3.878;2022-09-12T12:56:35;52883.97;;;-139.96;36.42
7906;BME280;13291;40.472;-3.878;2022-09-12T12:59:14;52887.97;;;-139.96;36.51
7906;BME280;13291;40.472;-3.878;2022-09-12T13:01:46;52885.97;;;-139.96;36.39
7906;BME280;13291;40.472;-3.878;2022-09-12T13:04:17;52873.97;;;-139.96;36.36
7906;BME280;13291;40.472;-3.878;2022-09-12T13:06:46;52877.97;;;-139.96;36.66
7906;BME280;13291;40.472;-3.878;2022-09-12T13:09:23;52877.97;;;-139.96;35.66
7906;BME280;13291;40.472;-3.878;2022-09-12T13:12:00;52865.97;;;-139.96;35.38
7906;BME280;13291;40.472;-3.878;2022-09-12T13:14:36;52869.97;;;-139.96;35.84
7906;BME280;13291;40.472;-3.878;2022-09-12T13:17:19;52861.97;;;-139.96;35.10
7906;BME280;13291;40.472;-3.878;2022-09-12T13:19:48;52855.97;;;-139.96;35.62